チュニス の空港の天気 - METARとTAF

チュニス・カルタゴ国際空港 ( DTTA / TUN ) - チュニジア チュニス
飛行場実況気象(Metar)
観測時間10/22 12:00 CET (10/22 11:00 UTC)
風向・風速南南東 7m/s
視程10km以上
天気現象
少しの雲 雲底高度 790m
気温27℃
湿度34%
気圧1021hPa
METARDTTA 221100Z 16013KT 9999 FEW026 27/10 Q1021
過去の天気等 Google飛行場航空写真 Wunderground天気予報

過去48時間のMETAR

飛行場予報(TAF)
発表時間: 10/22 06:00 CET (10/22 05:00 UTC)
予報対象時間: 22日7時 CET ~ 23日7時 CET
風向・風速東南東 5m/s
視程10km以上
少しの雲 雲底高度 790m
22日7時 CET ~ 22日9時 CET に徐々に
風向・風速南 6m/s
TAF DTTA 220500Z 2206/2306 12010KT 9999 FEW026
BECMG 2206/2208 18011KT